Time;durP1;ratioP1;P1;durP2;ratioP2;P2;SDS_P1;SDS_P2;PMS_P1;PMS_P2;Temp;Humidity;BMP_temperature;BMP_pressure;BME280_temperature;BME280_humidity;BME280_pressure;Samples;Min_cycle;Max_cycle;Signal;HPM_P1;HPM_P2
2022/05/17 00:01:10;;;;;;;49.15;30.77;;;16.80;99.90;;;;;;5013675;28;20038;-72
2022/05/17 00:03:36;;;;;;;51.53;31.13;;;16.80;99.90;;;;;;5013747;28;20097;-71
2022/05/17 00:06:02;;;;;;;45.95;30.83;;;16.80;99.90;;;;;;5014147;28;20022;-71
2022/05/17 00:08:27;;;;;;;54.30;33.33;;;16.80;99.90;;;;;;5013400;28;20068;-71
2022/05/17 00:10:53;;;;;;;50.10;32.35;;;16.90;99.90;;;;;;5013701;28;20025;-72
2022/05/17 00:13:18;;;;;;;51.10;32.03;;;16.90;99.90;;;;;;5013764;28;20077;-72
2022/05/17 00:15:48;;;;;;;48.38;31.77;;;16.90;99.90;;;;;;4994720;28;20037;-72
2022/05/17 00:18:16;;;;;;;52.72;31.08;;;16.90;99.90;;;;;;4993666;28;20480;-72
2022/05/17 00:20:42;;;;;;;45.35;29.27;;;16.90;99.90;;;;;;4976083;28;20033;-72
2022/05/17 00:23:09;;;;;;;47.45;30.17;;;16.90;99.90;;;;;;4993372;28;20030;-72
2022/05/17 00:25:35;;;;;;;45.28;29.02;;;16.80;99.90;;;;;;4993383;28;20257;-72
2022/05/17 00:28:02;;;;;;;48.22;29.20;;;16.90;99.90;;;;;;4993049;28;20069;-72
2022/05/17 00:30:28;;;;;;;48.30;30.65;;;16.80;99.90;;;;;;5010153;28;20435;-71
2022/05/17 00:32:53;;;;;;;44.53;29.15;;;16.80;99.90;;;;;;5012659;28;20022;-71
2022/05/17 00:35:19;;;;;;;40.05;28.77;;;16.70;99.90;;;;;;5012542;28;20487;-72
2022/05/17 00:37:44;;;;;;;46.50;29.85;;;16.80;99.90;;;;;;5012636;28;20117;-72
2022/05/17 00:40:11;;;;;;;44.88;28.00;;;16.80;99.90;;;;;;5012832;28;20033;-72
2022/05/17 00:42:37;;;;;;;43.53;29.73;;;16.80;99.90;;;;;;5012475;28;20029;-72
2022/05/17 00:45:04;;;;;;;46.17;29.63;;;16.80;99.90;;;;;;5012555;28;20030;-72
2022/05/17 00:47:47;;;;;;;46.97;29.23;;;16.80;99.90;;;;;;5012811;28;20029;-72
2022/05/17 00:50:35;;;;;;;50.80;29.77;;;16.70;99.90;;;;;;5012758;28;20053;-72
2022/05/17 00:53:21;;;;;;;52.30;30.15;;;16.70;99.90;;;;;;5012993;28;20349;-72
2022/05/17 00:56:00;;;;;;;47.90;28.70;;;16.70;99.90;;;;;;5015758;28;20064;-72
2022/05/17 00:58:40;;;;;;;47.58;29.77;;;16.70;99.90;;;;;;5016360;28;20028;-71
2022/05/17 01:01:15;;;;;;;48.67;27.85;;;16.70;99.90;;;;;;5016407;28;20390;-71
2022/05/17 01:03:53;;;;;;;49.13;29.75;;;16.60;99.90;;;;;;5015397;28;20057;-72
2022/05/17 01:06:21;;;;;;;44.00;28.58;;;16.60;99.90;;;;;;4998281;28;20018;-72
2022/05/17 01:08:47;;;;;;;50.35;30.08;;;16.60;99.90;;;;;;5015883;28;20030;-73
2022/05/17 01:11:12;;;;;;;47.47;28.38;;;16.70;99.90;;;;;;5015763;28;20076;-73
2022/05/17 01:16:24;;;;;;;44.90;28.75;;;16.60;99.90;;;;;;5015973;28;20117;-72
2022/05/17 01:18:51;;;;;;;48.22;29.10;;;16.70;99.90;;;;;;5015973;28;20360;-72
2022/05/17 01:21:16;;;;;;;53.67;29.95;;;16.60;99.90;;;;;;5015706;28;20049;-72
2022/05/17 01:23:42;;;;;;;45.83;29.25;;;16.60;99.90;;;;;;5014563;28;20479;-72
2022/05/17 01:26:13;;;;;;;47.80;28.75;;;16.60;99.90;;;;;;5016425;28;20095;-71
2022/05/17 01:28:39;;;;;;;46.33;28.10;;;16.60;99.90;;;;;;5015427;28;20017;-72
2022/05/17 01:31:05;;;;;;;51.42;29.55;;;16.60;99.90;;;;;;5015755;28;20472;-72
2022/05/17 01:33:33;;;;;;;50.88;29.10;;;16.60;99.90;;;;;;5016424;28;20026;-72
2022/05/17 01:36:00;;;;;;;51.40;28.70;;;16.60;99.90;;;;;;5015434;28;20017;-71
2022/05/17 01:38:27;;;;;;;44.88;28.55;;;16.70;99.90;;;;;;5015480;28;20042;-72
2022/05/17 01:40:53;;;;;;;49.28;29.58;;;16.70;99.90;;;;;;5015526;28;20022;-72
2022/05/17 01:43:18;;;;;;;49.95;28.40;;;16.60;99.90;;;;;;5015685;28;20028;-71
2022/05/17 01:45:44;;;;;;;52.65;28.92;;;16.60;99.90;;;;;;5015512;28;20030;-71
2022/05/17 01:48:10;;;;;;;46.38;28.50;;;16.60;99.90;;;;;;5015165;28;20036;-72
2022/05/17 01:50:36;;;;;;;47.40;29.02;;;16.60;99.90;;;;;;5015588;28;20025;-71
2022/05/17 01:53:02;;;;;;;46.28;27.90;;;16.60;99.90;;;;;;5014940;28;20030;-72
2022/05/17 01:55:28;;;;;;;49.65;29.35;;;16.50;99.90;;;;;;5015473;28;20083;-72
2022/05/17 01:57:53;;;;;;;40.90;28.20;;;16.40;99.90;;;;;;5015210;28;20022;-72
2022/05/17 02:00:21;;;;;;;50.13;28.90;;;16.40;99.90;;;;;;5015622;28;20033;-72
2022/05/17 02:02:46;;;;;;;48.72;29.88;;;16.40;99.90;;;;;;5015449;28;20065;-72
2022/05/17 02:05:15;;;;;;;45.17;30.38;;;16.30;99.90;;;;;;5014948;28;20030;-73
2022/05/17 02:07:40;;;;;;;47.95;29.67;;;16.30;99.90;;;;;;5014439;28;20030;-72
2022/05/17 02:10:07;;;;;;;46.38;30.08;;;16.30;99.90;;;;;;5015008;28;20026;-72
2022/05/17 02:12:33;;;;;;;55.55;32.17;;;16.30;99.90;;;;;;4997809;28;20113;-72
2022/05/17 02:14:59;;;;;;;49.35;30.77;;;16.30;99.90;;;;;;5014804;28;20021;-72
2022/05/17 02:17:25;;;;;;;48.50;29.45;;;16.30;99.90;;;;;;5014584;28;20031;-72
2022/05/17 02:19:50;;;;;;;51.22;29.92;;;16.30;99.90;;;;;;4997091;28;20026;-72
2022/05/17 02:22:16;;;;;;;51.00;30.02;;;16.30;99.90;;;;;;4997119;28;20072;-72
2022/05/17 02:24:41;;;;;;;48.53;29.30;;;16.30;99.90;;;;;;5015389;28;20391;-73
2022/05/17 02:27:07;;;;;;;55.00;30.90;;;16.20;99.90;;;;;;5014458;28;20079;-75
2022/05/17 02:29:32;;;;;;;50.22;29.67;;;16.20;99.90;;;;;;5015063;28;20033;-74
2022/05/17 02:31:59;;;;;;;48.47;30.15;;;16.20;99.90;;;;;;5014491;28;20037;-74
2022/05/17 02:34:25;;;;;;;48.40;28.38;;;16.20;99.90;;;;;;4996898;28;20090;-74
2022/05/17 02:36:50;;;;;;;55.35;31.05;;;16.10;99.90;;;;;;5014084;28;20502;-75
2022/05/17 02:39:16;;;;;;;47.72;29.15;;;16.20;99.90;;;;;;5013775;28;20513;-75
2022/05/17 02:41:41;;;;;;;52.20;29.85;;;16.20;99.90;;;;;;5015061;28;20018;-74
2022/05/17 02:44:07;;;;;;;47.25;30.00;;;16.20;99.90;;;;;;5013796;28;20490;-74
2022/05/17 02:46:33;;;;;;;55.10;31.40;;;16.10;99.90;;;;;;5014324;28;20034;-74
2022/05/17 02:49:04;;;;;;;50.92;28.95;;;16.10;99.90;;;;;;5014923;28;20476;-74
2022/05/17 02:51:30;;;;;;;51.90;30.35;;;16.00;99.90;;;;;;5014722;28;20059;-74
2022/05/17 02:53:55;;;;;;;59.55;31.60;;;16.00;99.90;;;;;;5014827;28;20026;-74
2022/05/17 02:56:21;;;;;;;51.83;30.70;;;16.00;99.90;;;;;;5014412;28;20100;-74
2022/05/17 02:58:47;;;;;;;50.88;31.35;;;16.00;99.90;;;;;;5014366;28;20022;-75
2022/05/17 03:01:12;;;;;;;55.20;31.27;;;16.00;99.90;;;;;;5014887;28;20034;-74
2022/05/17 03:03:40;;;;;;;56.60;33.80;;;16.00;99.90;;;;;;4996534;28;20072;-74
2022/05/17 03:06:06;;;;;;;54.08;31.73;;;16.00;99.90;;;;;;5014899;28;20329;-74
2022/05/17 03:08:33;;;;;;;47.30;31.10;;;15.90;99.90;;;;;;5014437;28;20468;-74
2022/05/17 03:10:59;;;;;;;46.00;30.00;;;15.90;99.90;;;;;;5013985;28;20021;-74
2022/05/17 03:13:25;;;;;;;56.22;33.28;;;15.90;99.90;;;;;;5014137;28;20025;-75
2022/05/17 03:15:51;;;;;;;62.15;35.65;;;15.90;99.90;;;;;;5014224;28;20224;-75
2022/05/17 03:18:17;;;;;;;56.85;32.92;;;15.90;99.90;;;;;;5013051;28;20208;-75
2022/05/17 03:20:43;;;;;;;61.08;32.85;;;15.90;99.90;;;;;;5014750;28;20157;-75
2022/05/17 03:23:08;;;;;;;57.60;35.13;;;15.90;99.90;;;;;;4996761;28;20543;-75
2022/05/17 03:25:34;;;;;;;58.35;35.80;;;15.80;99.90;;;;;;5002230;28;20106;-74
2022/05/17 03:27:59;;;;;;;56.33;32.88;;;15.90;99.90;;;;;;4994606;28;20026;-75
2022/05/17 03:30:26;;;;;;;60.25;34.58;;;15.90;99.90;;;;;;4976807;28;20050;-75
2022/05/17 03:32:51;;;;;;;53.40;33.35;;;16.00;99.90;;;;;;4994243;28;20027;-74
2022/05/17 03:35:17;;;;;;;54.65;32.00;;;15.90;99.90;;;;;;4994245;28;20102;-74
2022/05/17 03:37:43;;;;;;;58.33;33.58;;;15.90;99.90;;;;;;5001912;28;20083;-73
2022/05/17 03:40:11;;;;;;;61.03;33.15;;;15.90;99.90;;;;;;4994636;28;20507;-75
2022/05/17 03:42:37;;;;;;;54.53;32.85;;;16.00;99.90;;;;;;4994776;28;20023;-75
2022/05/17 03:45:04;;;;;;;52.90;31.90;;;16.00;99.90;;;;;;4994365;28;20141;-75
2022/05/17 03:47:30;;;;;;;54.78;31.65;;;16.00;99.90;;;;;;4994073;28;20038;-74
2022/05/17 03:49:56;;;;;;;52.15;32.25;;;16.00;99.90;;;;;;4994808;28;20049;-73
2022/05/17 03:52:29;;;;;;;52.17;30.58;;;16.00;99.90;;;;;;5013439;28;20026;-74
2022/05/17 03:54:58;;;;;;;50.20;30.05;;;16.00;99.90;;;;;;5013606;28;20507;-74
2022/05/17 03:57:25;;;;;;;55.53;30.83;;;16.00;99.90;;;;;;5013580;28;20032;-73
2022/05/17 03:59:50;;;;;;;51.28;29.92;;;16.00;99.90;;;;;;5013907;28;20096;-74
2022/05/17 04:02:16;;;;;;;53.15;30.25;;;16.00;99.90;;;;;;5014553;28;20061;-73
2022/05/17 04:04:42;;;;;;;58.00;30.88;;;16.00;99.90;;;;;;5008151;28;20030;-73
2022/05/17 04:07:07;;;;;;;57.00;31.15;;;16.00;99.90;;;;;;4994215;28;20042;-73
2022/05/17 04:09:33;;;;;;;54.53;30.05;;;16.00;99.90;;;;;;4993811;28;20042;-74
2022/05/17 04:11:59;;;;;;;48.88;30.45;;;16.00;99.90;;;;;;4994369;28;20077;-74
2022/05/17 04:14:24;;;;;;;52.00;29.85;;;16.10;99.90;;;;;;5002392;28;20455;-73
2022/05/17 04:16:51;;;;;;;51.25;27.77;;;16.10;99.90;;;;;;4994804;28;20365;-73
2022/05/17 04:19:17;;;;;;;47.97;28.58;;;16.10;99.90;;;;;;4994443;28;20031;-74
2022/05/17 04:21:43;;;;;;;46.58;28.33;;;16.10;99.90;;;;;;4994076;28;20027;-75
2022/05/17 04:24:10;;;;;;;47.00;28.80;;;16.10;99.90;;;;;;4976596;28;20038;-74
2022/05/17 04:26:37;;;;;;;48.03;28.13;;;16.00;99.90;;;;;;4976475;28;20034;-74
2022/05/17 04:29:03;;;;;;;47.97;28.92;;;16.10;99.90;;;;;;4995122;28;20318;-74
2022/05/17 04:31:29;;;;;;;49.47;28.80;;;16.10;99.90;;;;;;4997963;28;20031;-74
2022/05/17 04:33:55;;;;;;;53.65;27.95;;;16.10;99.90;;;;;;4998094;28;20080;-75
2022/05/17 04:36:21;;;;;;;42.67;27.17;;;16.10;99.90;;;;;;4998297;28;20054;-74
2022/05/17 04:38:46;;;;;;;55.53;28.65;;;16.20;99.90;;;;;;4998606;28;20514;-75
2022/05/17 04:41:12;;;;;;;52.13;27.80;;;16.20;99.90;;;;;;4998540;28;20022;-74
2022/05/17 04:43:38;;;;;;;41.88;25.35;;;16.20;99.90;;;;;;4998288;28;20561;-74
2022/05/17 04:46:04;;;;;;;43.53;26.02;;;16.20;99.90;;;;;;4998286;28;20058;-75
2022/05/17 04:48:30;;;;;;;43.17;25.17;;;16.20;99.90;;;;;;4980578;28;20341;-74
2022/05/17 04:50:55;;;;;;;46.28;26.23;;;16.30;99.90;;;;;;4980520;28;20069;-74
2022/05/17 04:53:21;;;;;;;46.05;25.23;;;16.30;99.90;;;;;;4997526;28;20035;-74
2022/05/17 04:55:47;;;;;;;45.58;25.08;;;16.30;99.90;;;;;;4997716;28;20026;-74
2022/05/17 04:58:12;;;;;;;46.35;25.83;;;16.30;99.90;;;;;;4980090;28;20076;-75
2022/05/17 05:00:38;;;;;;;44.33;25.17;;;16.30;99.90;;;;;;4997849;28;20057;-74
2022/05/17 05:03:04;;;;;;;37.33;22.42;;;16.40;99.90;;;;;;4997858;28;20392;-74
2022/05/17 05:05:30;;;;;;;40.78;23.63;;;16.40;99.90;;;;;;4997693;28;20049;-74
2022/05/17 05:07:56;;;;;;;39.33;25.05;;;16.40;99.90;;;;;;4998125;28;20381;-74
2022/05/17 05:10:22;;;;;;;44.15;23.63;;;16.50;99.90;;;;;;4997836;28;20473;-74
2022/05/17 05:12:48;;;;;;;39.90;22.98;;;16.50;99.90;;;;;;4998407;28;20037;-75
2022/05/17 05:15:14;;;;;;;35.05;22.00;;;16.50;99.90;;;;;;4998073;28;20054;-76
2022/05/17 05:17:41;;;;;;;42.17;22.75;;;16.50;99.90;;;;;;4997389;28;20073;-75
2022/05/17 05:20:11;;;;;;;35.75;21.38;;;16.50;99.90;;;;;;4997208;28;20036;-75
2022/05/17 05:22:37;;;;;;;33.47;19.45;;;16.50;99.90;;;;;;4997280;28;20050;-74
2022/05/17 05:25:03;;;;;;;39.80;22.02;;;16.50;99.90;;;;;;4997329;28;20484;-75
2022/05/17 05:27:33;;;;;;;37.40;20.77;;;16.50;99.90;;;;;;4997074;28;20038;-75
2022/05/17 05:30:00;;;;;;;44.15;21.30;;;16.50;99.90;;;;;;4997082;28;20022;-75
2022/05/17 05:32:25;;;;;;;41.95;21.48;;;16.50;99.90;;;;;;4997255;28;20037;-74
2022/05/17 05:34:51;;;;;;;33.33;20.25;;;16.60;99.90;;;;;;4997703;28;20026;-74
2022/05/17 05:37:17;;;;;;;31.55;19.45;;;16.70;99.90;;;;;;4997385;28;20034;-75
2022/05/17 05:39:42;;;;;;;33.50;20.48;;;16.60;99.90;;;;;;4997692;28;20494;-73
2022/05/17 05:42:08;;;;;;;45.03;21.23;;;16.70;99.90;;;;;;4996001;28;20032;-73
2022/05/17 05:44:34;;;;;;;40.40;21.27;;;16.70;99.90;;;;;;4996777;28;20018;-73
2022/05/17 05:47:00;;;;;;;37.60;19.90;;;16.60;99.90;;;;;;4996912;28;20031;-73
2022/05/17 05:49:25;;;;;;;37.38;18.95;;;16.70;99.90;;;;;;4979483;28;20077;-76
2022/05/17 05:51:52;;;;;;;39.20;19.58;;;16.80;99.90;;;;;;4997007;28;20122;-73
2022/05/17 05:54:17;;;;;;;32.05;18.23;;;16.90;99.90;;;;;;4997044;28;20431;-74
2022/05/17 05:56:43;;;;;;;35.85;18.30;;;16.90;99.90;;;;;;4996778;28;20022;-72
2022/05/17 05:59:09;;;;;;;32.55;18.10;;;17.10;99.90;;;;;;4992605;28;20036;-73
2022/05/17 06:01:35;;;;;;;31.45;17.10;;;17.30;99.90;;;;;;4996382;28;20032;-75
2022/05/17 06:04:01;;;;;;;27.90;15.45;;;17.40;99.90;;;;;;5014253;28;20087;-74
2022/05/17 06:06:27;;;;;;;32.72;16.27;;;17.40;99.90;;;;;;5016121;28;20511;-73
2022/05/17 06:08:53;;;;;;;26.77;14.35;;;17.40;99.90;;;;;;4998716;28;20376;-74
2022/05/17 06:11:19;;;;;;;27.98;16.05;;;17.50;99.90;;;;;;5003994;28;20104;-73
2022/05/17 06:13:44;;;;;;;29.73;16.58;;;17.40;99.90;;;;;;5008825;28;20031;-75
2022/05/17 06:16:10;;;;;;;29.08;15.57;;;17.30;99.90;;;;;;4995370;28;20049;-74
2022/05/17 06:18:35;;;;;;;34.13;15.70;;;17.30;99.90;;;;;;5010989;28;20113;-74
2022/05/17 06:21:02;;;;;;;34.25;15.27;;;17.40;99.90;;;;;;5015216;28;20160;-74
2022/05/17 06:23:28;;;;;;;25.08;14.93;;;17.40;99.90;;;;;;5012924;28;20033;-74
2022/05/17 06:25:54;;;;;;;33.17;15.25;;;17.50;99.90;;;;;;4996944;28;20041;-74
2022/05/17 06:28:19;;;;;;;27.23;15.25;;;17.60;99.90;;;;;;4995960;28;20026;-74
2022/05/17 06:30:45;;;;;;;32.67;14.50;;;17.80;99.90;;;;;;4996134;28;20410;-75
2022/05/17 06:33:12;;;;;;;31.00;14.20;;;18.00;99.90;;;;;;4995731;28;20034;-74
2022/05/17 06:35:39;;;;;;;23.98;13.63;;;18.20;99.90;;;;;;4995686;28;20026;-74
2022/05/17 06:38:05;;;;;;;29.35;14.05;;;18.30;99.90;;;;;;4978106;28;20030;-74
2022/05/17 06:40:32;;;;;;;23.73;13.45;;;18.30;99.90;;;;;;4995988;28;20173;-74
2022/05/17 06:42:58;;;;;;;30.20;13.18;;;18.40;99.90;;;;;;4995497;28;20058;-74
2022/05/17 06:45:23;;;;;;;25.08;13.48;;;18.30;99.90;;;;;;4996145;28;20480;-71
2022/05/17 06:47:49;;;;;;;29.05;13.73;;;18.50;99.90;;;;;;4994948;28;20026;-71
2022/05/17 06:50:15;;;;;;;25.13;14.27;;;18.50;99.90;;;;;;4978436;28;20030;-71
2022/05/17 06:52:40;;;;;;;25.95;14.27;;;18.60;99.90;;;;;;4994978;28;20029;-71
2022/05/17 06:55:07;;;;;;;23.02;13.25;;;18.70;99.90;;;;;;4994670;28;20057;-71
2022/05/17 06:57:33;;;;;;;27.67;14.07;;;18.80;99.90;;;;;;4995660;28;20357;-71
2022/05/17 06:59:59;;;;;;;26.00;14.15;;;18.70;99.90;;;;;;4995340;28;20488;-71
2022/05/17 07:02:24;;;;;;;27.67;13.75;;;18.80;99.90;;;;;;4995278;28;20113;-71
2022/05/17 07:04:50;;;;;;;34.00;15.50;;;18.80;99.90;;;;;;4997005;28;20341;-70
2022/05/17 07:07:15;;;;;;;32.88;14.75;;;18.90;99.90;;;;;;4978360;28;20492;-70
2022/05/17 07:13:07;;;;;;;26.38;12.90;;;18.80;99.90;;;;;;4995895;28;20031;-73
2022/05/17 07:15:11;;;;;;;28.08;11.65;;;18.70;99.90;;;;;;4995405;28;20089;-72
2022/05/17 07:17:37;;;;;;;30.80;11.73;;;18.70;99.90;;;;;;4979096;28;20034;-71
2022/05/17 07:20:03;;;;;;;25.38;10.50;;;18.60;99.90;;;;;;4996312;28;20101;-73
2022/05/17 07:22:29;;;;;;;24.25;11.25;;;18.60;99.90;;;;;;4995600;28;20083;-73
2022/05/17 07:24:54;;;;;;;19.75;10.23;;;18.70;99.90;;;;;;4977877;28;20030;-71
2022/05/17 07:27:29;;;;;;;24.27;10.00;;;19.00;99.90;;;;;;5005767;28;20034;-71
2022/05/17 07:29:54;;;;;;;21.27;10.95;;;19.20;99.90;;;;;;5015054;28;20037;-71
2022/05/17 07:32:20;;;;;;;27.58;11.07;;;19.50;99.90;;;;;;5014058;28;20038;-71
2022/05/17 07:34:47;;;;;;;20.23;11.15;;;19.70;99.90;;;;;;5015188;28;20025;-74
2022/05/17 07:37:13;;;;;;;20.45;11.13;;;19.90;99.90;;;;;;5015011;28;20025;-73
2022/05/17 07:39:39;;;;;;;19.08;9.98;;;19.70;99.90;;;;;;4998953;28;20022;-73
2022/05/17 07:42:09;;;;;;;19.20;10.23;;;19.60;99.90;;;;;;5013804;28;20372;-73
2022/05/17 07:44:35;;;;;;;21.73;11.05;;;19.60;99.90;;;;;;4996442;28;20026;-73
2022/05/17 07:47:02;;;;;;;21.42;10.57;;;19.70;99.90;;;;;;5014145;28;20057;-72
2022/05/17 07:49:28;;;;;;;20.30;10.73;;;19.60;99.90;;;;;;5008597;28;20041;-71
2022/05/17 07:51:54;;;;;;;22.85;11.82;;;19.40;99.90;;;;;;5005403;28;20383;-72
2022/05/17 07:54:20;;;;;;;24.70;10.68;;;19.30;99.90;;;;;;5014563;28;20018;-72
2022/05/17 07:56:45;;;;;;;26.55;11.45;;;19.20;99.90;;;;;;5014307;28;20041;-73
2022/05/17 07:59:11;;;;;;;24.33;10.77;;;19.10;99.90;;;;;;5013776;28;20029;-73
2022/05/17 08:01:36;;;;;;;22.50;10.68;;;19.10;99.90;;;;;;5014108;28;20030;-71
2022/05/17 08:04:02;;;;;;;23.27;10.93;;;19.20;99.90;;;;;;5014404;28;20115;-73
2022/05/17 08:06:28;;;;;;;19.67;9.75;;;19.30;99.90;;;;;;5018095;28;20032;-72
2022/05/17 08:08:53;;;;;;;25.95;10.25;;;19.50;99.90;;;;;;5017566;28;20025;-72
2022/05/17 08:11:19;;;;;;;21.95;10.38;;;19.60;99.90;;;;;;5018294;28;20053;-73
2022/05/17 08:13:46;;;;;;;21.75;10.05;;;19.90;99.90;;;;;;5018507;28;20080;-72
2022/05/17 08:16:12;;;;;;;24.65;9.88;;;20.20;99.90;;;;;;5018589;28;20411;-72
2022/05/17 08:18:37;;;;;;;21.27;10.48;;;20.30;99.90;;;;;;5017704;28;20151;-72
2022/05/17 08:21:03;;;;;;;18.40;8.75;;;20.40;99.90;;;;;;5017664;28;20042;-73
2022/05/17 08:23:29;;;;;;;23.23;11.10;;;20.60;99.90;;;;;;5017818;28;20034;-73
2022/05/17 08:28:39;;;;;;;22.67;10.18;;;20.80;99.90;;;;;;5039159;28;20449;-72
2022/05/17 08:31:04;;;;;;;19.98;9.02;;;21.00;99.90;;;;;;5037748;28;20049;-73
2022/05/17 08:33:30;;;;;;;21.75;9.88;;;21.10;99.90;;;;;;5038342;28;20100;-72
2022/05/17 08:36:02;;;;;;;21.92;10.10;;;21.30;99.90;;;;;;5037810;28;20489;-72
2022/05/17 08:38:49;;;;;;;21.02;10.13;;;21.40;99.90;;;;;;5038191;28;20053;-73
2022/05/17 08:41:20;;;;;;;21.63;9.55;;;21.50;99.90;;;;;;5038461;28;20029;-72
2022/05/17 08:43:51;;;;;;;22.38;9.52;;;21.50;99.90;;;;;;5018935;28;20049;-72
2022/05/17 08:46:38;;;;;;;25.05;10.20;;;21.60;99.90;;;;;;5038151;28;20021;-73
2022/05/17 08:49:21;;;;;;;19.83;9.52;;;21.40;99.90;;;;;;5020957;28;20386;-72
2022/05/17 08:52:05;;;;;;;22.95;9.05;;;21.50;99.90;;;;;;5038347;28;20466;-72
2022/05/17 08:54:48;;;;;;;28.27;9.63;;;21.50;99.90;;;;;;5038024;28;20024;-73
2022/05/17 08:57:34;;;;;;;26.88;11.13;;;21.60;99.90;;;;;;5038534;28;20056;-74
2022/05/17 09:00:18;;;;;;;21.75;9.15;;;21.70;99.90;;;;;;5024381;28;20033;-73
2022/05/17 09:03:05;;;;;;;22.58;10.57;;;21.70;99.90;;;;;;5037896;28;20386;-73
2022/05/17 09:05:36;;;;;;;22.17;10.15;;;21.60;99.90;;;;;;5037714;28;20028;-73
2022/05/17 09:08:22;;;;;;;18.63;9.90;;;21.50;99.90;;;;;;5038173;28;20200;-73
2022/05/17 09:11:02;;;;;;;23.58;10.70;;;21.40;99.90;;;;;;5014244;28;20037;-72
2022/05/17 09:13:39;;;;;;;18.05;10.73;;;21.30;99.90;;;;;;5017715;28;20033;-73
2022/05/17 09:16:04;;;;;;;25.35;11.70;;;21.10;99.90;;;;;;5032464;28;20130;-72
2022/05/17 09:18:31;;;;;;;18.60;11.07;;;21.00;99.90;;;;;;5034900;28;20030;-72
2022/05/17 09:20:56;;;;;;;21.02;11.88;;;20.90;99.90;;;;;;5036508;28;20021;-71
2022/05/17 09:23:22;;;;;;;25.42;13.85;;;20.60;99.90;;;;;;5025091;28;20186;-73
2022/05/17 09:25:56;;;;;;;20.17;11.50;;;20.60;99.90;;;;;;5032897;28;20858;-70
2022/05/17 09:28:58;;;;;;;23.67;11.82;;;20.70;99.90;;;;;;5028306;28;20087;-70
2022/05/17 09:31:29;;;;;;;17.55;10.05;;;20.90;99.90;;;;;;5026660;28;20398;-72
2022/05/17 09:33:57;;;;;;;14.35;10.18;;;21.10;99.90;;;;;;5010158;28;20021;-72
2022/05/17 09:36:25;;;;;;;22.73;10.15;;;21.30;99.90;;;;;;5031956;28;20021;-73
2022/05/17 09:38:53;;;;;;;18.13;10.65;;;21.40;99.90;;;;;;5027186;28;20348;-72
2022/05/17 09:41:25;;;;;;;23.10;9.68;;;21.60;99.90;;;;;;5025929;28;20036;-72
2022/05/17 09:44:25;;;;;;;24.48;10.95;;;21.80;99.90;;;;;;5007556;28;20030;-72
2022/05/17 09:46:57;;;;;;;23.65;10.50;;;21.80;99.90;;;;;;4982435;28;20044;-71
2022/05/17 09:52:38;;;;;;;18.58;9.38;;;21.80;99.90;;;;;;5030459;28;20029;-72
2022/05/17 09:55:07;;;;;;;17.20;9.23;;;21.90;99.90;;;;;;5028663;28;20045;-73
2022/05/17 09:57:33;;;;;;;19.33;8.80;;;22.00;99.90;;;;;;5029274;28;20037;-73
2022/05/17 10:00:16;;;;;;;15.75;8.93;;;22.20;99.90;;;;;;5009394;28;20440;-72
2022/05/17 10:03:00;;;;;;;21.15;9.60;;;22.40;99.90;;;;;;5030846;28;20036;-74
2022/05/17 10:05:45;;;;;;;21.00;9.00;;;22.40;99.90;;;;;;5033215;28;20048;-72
2022/05/17 10:08:14;;;;;;;14.15;7.50;;;22.50;99.90;;;;;;5023458;28;20025;-74
2022/05/17 10:10:47;;;;;;;15.68;8.02;;;22.80;99.90;;;;;;5037188;28;20025;-76
2022/05/17 10:13:42;;;;;;;17.17;8.45;;;23.00;99.90;;;;;;5012384;28;20032;-75
2022/05/17 10:16:33;;;;;;;16.67;8.50;;;23.20;99.90;;;;;;5013480;28;20030;-76
2022/05/17 10:19:24;;;;;;;17.65;8.35;;;23.30;99.90;;;;;;5035821;28;20028;-75
2022/05/17 10:22:22;;;;;;;17.67;7.90;;;23.10;99.90;;;;;;5035750;28;20040;-76
2022/05/17 10:24:51;;;;;;;17.63;8.70;;;22.80;99.90;;;;;;5034820;28;20060;-75
2022/05/17 10:27:32;;;;;;;18.00;8.82;;;22.60;99.90;;;;;;5027393;28;20054;-76
2022/05/17 10:30:10;;;;;;;23.58;9.75;;;22.30;99.90;;;;;;5028605;28;20060;-74
2022/05/17 10:33:03;;;;;;;15.30;8.50;;;22.10;99.90;;;;;;5031523;28;20487;-75
2022/05/17 10:35:42;;;;;;;17.58;9.02;;;22.00;99.90;;;;;;5022179;28;20109;-75
2022/05/17 10:38:17;;;;;;;17.38;8.52;;;22.00;99.90;;;;;;5018849;28;20469;-75
2022/05/17 10:40:47;;;;;;;13.55;7.85;;;22.00;99.90;;;;;;5028638;28;20443;-75
2022/05/17 10:43:23;;;;;;;16.55;8.05;;;21.80;99.90;;;;;;5028494;28;20029;-75
2022/05/17 10:46:04;;;;;;;17.38;8.52;;;21.80;99.90;;;;;;5010687;28;20049;-76
2022/05/17 10:48:48;;;;;;;22.85;8.90;;;21.80;99.90;;;;;;5023405;28;20025;-75
2022/05/17 10:51:26;;;;;;;12.05;8.07;;;21.90;99.90;;;;;;5014133;28;20044;-76
2022/05/17 10:54:01;;;;;;;17.33;8.77;;;22.10;99.90;;;;;;5026883;28;20042;-76
2022/05/17 10:57:04;;;;;;;20.13;9.35;;;22.30;99.90;;;;;;4999352;28;20090;-72
2022/05/17 10:59:38;;;;;;;13.95;8.02;;;22.40;99.90;;;;;;5032764;28;20518;-71
2022/05/17 11:02:34;;;;;;;16.02;8.45;;;22.30;99.90;;;;;;5028355;28;20490;-71
2022/05/17 11:05:22;;;;;;;16.55;8.05;;;22.10;99.90;;;;;;5026381;28;20169;-72
2022/05/17 11:07:56;;;;;;;16.55;7.93;;;22.10;99.90;;;;;;5038125;28;20029;-72
2022/05/17 11:10:30;;;;;;;13.80;6.15;;;22.10;99.90;;;;;;5037647;28;20074;-72
2022/05/17 11:13:12;;;;;;;22.05;7.57;;;22.30;99.90;;;;;;5023025;28;20052;-72
2022/05/17 11:17:24;;;;;;;11.18;6.30;;;22.60;99.90;;;;;;5092798;27;1211115;-56
2022/05/17 11:20:10;;;;;;;13.68;6.22;;;22.50;99.90;;;;;;5092381;28;20462;-56
2022/05/17 11:23:08;;;;;;;11.85;6.25;;;22.60;99.90;;;;;;5090909;28;20024;-55
2022/05/17 11:26:05;;;;;;;15.18;6.18;;;22.60;99.90;;;;;;5090877;28;20142;-54
2022/05/17 11:28:49;;;;;;;14.27;6.35;;;22.50;99.90;;;;;;5082168;28;20047;-55
2022/05/17 11:31:20;;;;;;;10.18;6.60;;;22.60;99.90;;;;;;5072528;28;20035;-54
2022/05/17 11:33:46;;;;;;;14.98;6.40;;;22.70;99.90;;;;;;5088028;28;20016;-55
2022/05/17 11:36:33;;;;;;;16.92;6.65;;;22.90;99.90;;;;;;5071056;28;20074;-55
2022/05/17 11:39:00;;;;;;;14.23;5.55;;;23.10;99.90;;;;;;5085881;28;20024;-55
2022/05/17 11:41:34;;;;;;;14.57;5.13;;;23.10;99.90;;;;;;5054028;28;20017;-54
2022/05/17 11:44:05;;;;;;;11.32;5.18;;;23.00;99.90;;;;;;5087025;28;20082;-57
2022/05/17 11:46:31;;;;;;;15.75;6.13;;;22.90;99.90;;;;;;5087158;28;20028;-55
2022/05/17 11:49:17;;;;;;;12.98;6.63;;;22.80;99.90;;;;;;5070484;28;20104;-53
2022/05/17 11:51:58;;;;;;;20.88;8.25;;;22.80;99.90;;;;;;5066388;28;20037;-56
2022/05/17 11:54:42;;;;;;;19.55;9.73;;;23.00;99.90;;;;;;5089840;28;20044;-54
2022/05/17 11:57:22;;;;;;;13.32;6.80;;;23.20;99.90;;;;;;5090487;28;20016;-55
2022/05/17 12:00:02;;;;;;;13.23;6.78;;;23.40;99.90;;;;;;5089414;28;20016;-55
2022/05/17 12:02:47;;;;;;;16.05;6.20;;;23.30;99.90;;;;;;5070276;28;20036;-51
2022/05/17 12:05:43;;;;;;;14.60;6.28;;;23.20;99.90;;;;;;5090011;28;20028;-55
2022/05/17 12:08:27;;;;;;;11.70;6.25;;;23.00;99.90;;;;;;5089001;28;20400;-55
2022/05/17 12:11:10;;;;;;;10.80;3.95;;;22.80;99.90;;;;;;5088885;28;20056;-54
2022/05/17 12:13:52;;;;;;;10.98;5.30;;;22.70;99.90;;;;;;5090241;28;20016;-54
2022/05/17 12:16:24;;;;;;;14.05;5.63;;;22.70;99.90;;;;;;5087068;28;20020;-53
2022/05/17 12:19:01;;;;;;;16.20;5.82;;;22.90;99.90;;;;;;5087760;28;20013;-56
2022/05/17 12:21:57;;;;;;;11.02;4.20;;;23.00;99.90;;;;;;5088556;28;20087;-54
2022/05/17 12:24:54;;;;;;;10.07;3.47;;;23.20;99.90;;;;;;5050214;28;20550;-54
2022/05/17 12:27:30;;;;;;;8.13;4.30;;;23.40;99.90;;;;;;5080715;28;20531;-53
2022/05/17 12:33:17;;;;;;;11.45;4.30;;;23.80;99.90;;;;;;5071167;28;20086;-52
2022/05/17 12:35:46;;;;;;;10.60;3.83;;;24.00;99.90;;;;;;5054904;28;20024;-56
2022/05/17 12:43:58;;;;;;;12.38;4.30;;;23.80;99.90;;;;;;5075506;28;20031;-54
2022/05/17 12:46:31;;;;;;;11.02;4.28;;;23.70;99.90;;;;;;5075526;28;20451;-56
2022/05/17 12:49:12;;;;;;;8.73;3.60;;;23.60;99.90;;;;;;5056414;28;21254;-57
2022/05/17 12:51:38;;;;;;;6.80;3.00;;;23.50;99.90;;;;;;5073971;28;20025;-55
2022/05/17 12:54:12;;;;;;;7.63;3.75;;;23.50;99.90;;;;;;5074922;28;20495;-54
2022/05/17 12:56:41;;;;;;;7.22;3.00;;;23.60;99.90;;;;;;5054178;28;20025;-57
2022/05/17 12:59:07;;;;;;;7.38;2.63;;;23.90;99.90;;;;;;5073480;28;20024;-51
2022/05/17 13:01:38;;;;;;;6.55;2.85;;;23.80;99.90;;;;;;5053346;28;20071;-57
2022/05/17 13:04:12;;;;;;;5.97;2.78;;;24.00;99.90;;;;;;5071551;28;20020;-54
2022/05/17 13:06:47;;;;;;;8.48;3.30;;;24.00;99.90;;;;;;5074417;28;20426;-55
2022/05/17 13:09:26;;;;;;;9.23;3.90;;;24.00;99.90;;;;;;5078177;28;20033;-51